createdAt,value
2023-02-07T00:01:39.179Z,28.40
2023-02-07T00:04:07.491Z,19.80
2023-02-07T00:06:36.675Z,21.30
2023-02-07T00:09:08.922Z,22.30
2023-02-07T00:11:40.778Z,24.40
2023-02-07T00:14:11.631Z,24.50
2023-02-07T00:16:41.251Z,23.60
2023-02-07T00:19:09.918Z,29.10
2023-02-07T00:21:38.239Z,20.60
2023-02-07T00:24:06.783Z,32.50
2023-02-07T00:26:35.084Z,26.80
2023-02-07T00:29:04.404Z,35.00
2023-02-07T00:31:34.595Z,32.20
2023-02-07T00:34:06.223Z,36.80
2023-02-07T00:36:36.721Z,39.80
2023-02-07T00:39:14.569Z,36.90
2023-02-07T00:41:44.921Z,14.00
2023-02-07T00:44:13.174Z,37.10
2023-02-07T00:46:41.553Z,30.80
2023-02-07T00:49:11.108Z,36.40
2023-02-07T00:51:39.715Z,36.10
2023-02-07T00:54:08.050Z,35.00
2023-02-07T00:56:37.053Z,28.90
2023-02-07T00:59:05.463Z,16.00
2023-02-07T01:01:34.425Z,14.70
2023-02-07T01:04:02.671Z,29.80
2023-02-07T01:06:33.928Z,14.40
2023-02-07T01:09:04.530Z,26.50
2023-02-07T01:11:32.962Z,30.20
2023-02-07T01:14:02.449Z,23.80
2023-02-07T01:16:33.614Z,21.70
2023-02-07T01:19:05.928Z,22.50
2023-02-07T01:21:34.431Z,27.10
2023-02-07T01:24:03.130Z,7.40
2023-02-07T01:26:31.477Z,27.60
2023-02-07T01:28:59.777Z,14.40
2023-02-07T01:31:28.807Z,14.00
2023-02-07T01:33:59.140Z,10.40
2023-02-07T01:36:29.947Z,21.90
2023-02-07T01:38:58.282Z,37.30
2023-02-07T01:41:28.039Z,24.80
2023-02-07T01:44:04.487Z,14.80
2023-02-07T01:46:34.658Z,31.20
2023-02-07T01:49:08.350Z,25.90
2023-02-07T01:51:37.439Z,24.80
2023-02-07T01:54:10.283Z,31.40
2023-02-07T01:56:44.937Z,27.60
2023-02-07T01:59:13.933Z,25.20
2023-02-07T02:01:43.782Z,35.40
2023-02-07T02:04:12.211Z,35.20
2023-02-07T02:06:41.823Z,24.50
2023-02-07T02:09:16.594Z,33.40
2023-02-07T02:12:12.348Z,19.40
2023-02-07T02:15:10.158Z,26.10
2023-02-07T02:17:56.434Z,20.80
2023-02-07T02:20:50.180Z,22.80
2023-02-07T02:23:55.292Z,23.00
2023-02-07T02:26:42.369Z,18.20
2023-02-07T02:29:16.425Z,19.50
2023-02-07T02:32:06.339Z,12.70
2023-02-07T02:34:54.103Z,19.30
2023-02-07T02:37:36.453Z,25.70
2023-02-07T02:40:22.134Z,19.40
2023-02-07T02:43:00.724Z,25.00
2023-02-07T02:45:35.214Z,16.90
2023-02-07T02:48:05.759Z,18.80
2023-02-07T02:50:35.595Z,15.80
2023-02-07T02:53:03.796Z,18.70
2023-02-07T02:56:13.920Z,16.40
2023-02-07T02:59:00.289Z,8.30
2023-02-07T03:01:50.247Z,7.70
2023-02-07T03:04:18.515Z,14.00
2023-02-07T03:07:31.850Z,15.80
2023-02-07T03:10:12.233Z,16.00
2023-02-07T03:13:03.376Z,21.10
2023-02-07T03:16:04.561Z,16.50
2023-02-07T03:18:59.354Z,26.30
2023-02-07T03:21:34.714Z,15.50
2023-02-07T03:24:08.973Z,22.40
2023-02-07T03:26:40.094Z,10.90
2023-02-07T03:29:10.073Z,28.40
2023-02-07T03:31:41.842Z,15.20
2023-02-07T03:34:19.371Z,28.80
2023-02-07T03:37:03.819Z,32.10
2023-02-07T03:39:33.098Z,25.10
2023-02-07T03:42:10.351Z,23.40
2023-02-07T03:44:41.480Z,24.40
2023-02-07T03:47:09.832Z,23.30
2023-02-07T03:49:38.108Z,22.30
2023-02-07T03:52:06.290Z,23.50
2023-02-07T03:54:34.862Z,30.90
2023-02-07T03:57:03.113Z,26.60
2023-02-07T03:59:31.397Z,9.20
2023-02-07T04:01:59.806Z,8.10
2023-02-07T04:04:29.291Z,14.10
2023-02-07T04:06:57.580Z,22.90
2023-02-07T04:09:26.653Z,13.00
2023-02-07T04:11:54.843Z,33.40
2023-02-07T04:14:23.251Z,21.70
2023-02-07T04:16:51.649Z,15.20
2023-02-07T04:19:20.133Z,7.90
2023-02-07T04:21:49.070Z,13.80
2023-02-07T04:24:18.166Z,21.50
2023-02-07T04:26:46.488Z,10.20
2023-02-07T04:29:14.895Z,6.80
2023-02-07T04:31:43.139Z,23.50
2023-02-07T04:34:13.141Z,18.70
2023-02-07T04:36:41.335Z,10.20
2023-02-07T04:39:09.473Z,5.40
2023-02-07T04:41:37.768Z,24.30
2023-02-07T04:44:06.123Z,16.90
2023-02-07T04:46:34.352Z,14.40
2023-02-07T04:49:04.340Z,19.00
2023-02-07T04:51:33.065Z,13.00
2023-02-07T04:54:01.439Z,17.00
2023-02-07T04:56:29.785Z,29.10
2023-02-07T04:58:58.146Z,18.00
2023-02-07T05:01:26.602Z,23.10
2023-02-07T05:03:54.977Z,14.60
2023-02-07T05:06:23.154Z,7.60
2023-02-07T05:08:51.364Z,19.00
2023-02-07T05:11:20.136Z,7.70
2023-02-07T05:13:49.440Z,19.40
2023-02-07T05:16:17.773Z,17.40
2023-02-07T05:18:46.097Z,13.50
2023-02-07T05:21:14.407Z,26.50
2023-02-07T05:23:42.663Z,16.00
2023-02-07T05:26:11.185Z,17.20
2023-02-07T05:28:39.305Z,16.60
2023-02-07T05:31:07.653Z,14.30
2023-02-07T05:33:36.304Z,27.40
2023-02-07T05:36:05.434Z,23.80
2023-02-07T05:38:33.790Z,18.50
2023-02-07T05:41:02.006Z,15.20
2023-02-07T05:43:30.178Z,17.90
2023-02-07T05:45:58.786Z,13.30
2023-02-07T05:48:27.062Z,18.60
2023-02-07T05:50:55.213Z,12.40
2023-02-07T05:53:23.374Z,12.50
2023-02-07T05:55:52.799Z,28.60
2023-02-07T05:58:21.102Z,15.10
2023-02-07T06:00:49.397Z,18.80
2023-02-07T06:03:17.721Z,24.70
2023-02-07T06:05:47.197Z,24.80
2023-02-07T06:08:15.413Z,24.00
2023-02-07T06:10:45.768Z,20.20
2023-02-07T06:13:15.348Z,30.40
2023-02-07T06:15:43.669Z,34.40
2023-02-07T06:18:11.995Z,33.90
2023-02-07T06:20:40.536Z,31.40
2023-02-07T06:23:09.080Z,27.70
2023-02-07T06:25:37.646Z,27.10
2023-02-07T06:28:06.036Z,34.50
2023-02-07T06:30:34.398Z,18.10
2023-02-07T06:33:02.703Z,44.10
2023-02-07T06:35:31.720Z,41.30
2023-02-07T06:37:59.915Z,40.40
2023-02-07T06:40:28.289Z,36.90
2023-02-07T06:42:56.558Z,39.60
2023-02-07T06:45:24.847Z,17.80
2023-02-07T06:47:52.949Z,22.10
2023-02-07T06:50:21.217Z,8.10
2023-02-07T06:52:49.721Z,16.40
2023-02-07T06:55:18.017Z,51.90
2023-02-07T06:57:46.316Z,39.80
2023-02-07T07:00:15.358Z,27.00
2023-02-07T07:02:43.669Z,49.50
2023-02-07T07:05:11.906Z,49.80
2023-02-07T07:07:40.149Z,53.00
2023-02-07T07:10:09.089Z,49.30
2023-02-07T07:12:37.597Z,43.40
2023-02-07T07:15:06.316Z,59.70
2023-02-07T07:17:34.465Z,50.00
2023-02-07T07:20:02.782Z,42.90
2023-02-07T07:22:31.212Z,50.00
2023-02-07T07:24:59.996Z,51.20
2023-02-07T07:27:28.305Z,44.30
2023-02-07T07:29:56.750Z,28.30
2023-02-07T07:32:33.652Z,23.20
2023-02-07T07:35:03.996Z,43.40
2023-02-07T07:37:33.342Z,20.00
2023-02-07T07:40:01.849Z,36.60
2023-02-07T07:42:30.377Z,37.20
2023-02-07T07:45:17.075Z,34.10
2023-02-07T07:47:45.305Z,21.20
2023-02-07T07:50:14.037Z,31.00
2023-02-07T07:52:43.241Z,31.40
2023-02-07T07:55:11.559Z,48.60
2023-02-07T07:57:40.519Z,49.40
2023-02-07T08:00:09.504Z,43.90
2023-02-07T08:02:44.956Z,36.60
2023-02-07T08:05:13.905Z,34.40
2023-02-07T08:07:42.547Z,27.80
2023-02-07T08:10:11.076Z,23.10
2023-02-07T08:12:39.508Z,35.90
2023-02-07T08:15:09.908Z,21.90
2023-02-07T08:17:42.884Z,39.50
2023-02-07T08:20:15.803Z,35.50
2023-02-07T08:22:44.178Z,31.50
2023-02-07T08:25:13.182Z,37.60
2023-02-07T08:27:41.934Z,30.60
2023-02-07T08:30:14.350Z,31.60
2023-02-07T08:35:13.879Z,37.80
2023-02-07T08:37:42.299Z,27.10
2023-02-07T08:40:22.470Z,33.70
2023-02-07T08:42:51.184Z,28.60
2023-02-07T08:45:19.503Z,24.70
2023-02-07T08:47:48.544Z,31.20
2023-02-07T08:50:17.847Z,18.70
2023-02-07T08:52:46.427Z,23.40
2023-02-07T08:55:14.687Z,19.20
2023-02-07T08:57:43.099Z,30.70
2023-02-07T09:00:12.227Z,31.10
2023-02-07T09:02:48.112Z,28.10
2023-02-07T09:05:19.025Z,42.80
2023-02-07T09:07:47.354Z,32.90
2023-02-07T09:10:15.702Z,34.50
2023-02-07T09:12:44.147Z,33.50
2023-02-07T09:15:13.414Z,31.30
2023-02-07T09:17:41.950Z,32.10
2023-02-07T09:20:11.020Z,22.20
2023-02-07T09:22:58.046Z,15.00
2023-02-07T09:25:30.736Z,23.20
2023-02-07T09:30:29.738Z,23.30
2023-02-07T09:32:58.493Z,14.30
2023-02-07T09:35:27.291Z,15.80
2023-02-07T09:37:56.107Z,19.30
2023-02-07T09:40:24.752Z,14.00
2023-02-07T09:43:09.547Z,21.00
2023-02-07T09:45:42.810Z,20.10
2023-02-07T09:48:23.199Z,15.80
2023-02-07T09:50:55.329Z,14.80
2023-02-07T09:53:40.987Z,16.40
2023-02-07T09:56:11.478Z,16.50
2023-02-07T09:58:58.124Z,7.10
2023-02-07T10:01:33.152Z,18.40
2023-02-07T10:04:21.874Z,13.60
2023-02-07T10:06:55.147Z,14.90
2023-02-07T10:09:33.772Z,8.10
2023-02-07T10:12:23.805Z,10.00
2023-02-07T10:15:14.298Z,14.30
2023-02-07T10:18:04.579Z,35.50
2023-02-07T10:20:40.035Z,16.80
2023-02-07T10:23:29.945Z,25.50
2023-02-07T10:26:21.055Z,21.50
2023-02-07T10:29:01.721Z,32.20
2023-02-07T10:31:38.034Z,12.70
2023-02-07T10:34:28.911Z,3.60
2023-02-07T10:37:00.679Z,14.80
2023-02-07T10:39:40.752Z,13.90
2023-02-07T10:42:20.076Z,11.30
2023-02-07T10:44:48.378Z,14.40
2023-02-07T10:47:21.278Z,12.60
2023-02-07T10:49:55.977Z,12.30
2023-02-07T10:52:40.433Z,8.60
2023-02-07T10:55:11.139Z,12.40
2023-02-07T10:57:42.116Z,10.30
2023-02-07T11:02:50.232Z,11.20
2023-02-07T11:05:18.619Z,12.50
2023-02-07T11:08:01.082Z,14.10
2023-02-07T11:10:34.452Z,10.80
2023-02-07T11:13:04.536Z,13.40
2023-02-07T11:15:47.345Z,14.80
2023-02-07T11:21:28.650Z,13.40
2023-02-07T11:24:05.405Z,16.90
2023-02-07T11:26:35.675Z,14.10
2023-02-07T11:29:15.335Z,9.80
2023-02-07T11:31:46.654Z,19.30
2023-02-07T11:34:21.064Z,26.50
2023-02-07T11:36:49.308Z,19.80
2023-02-07T11:39:21.105Z,17.90
2023-02-07T11:42:00.541Z,19.30
2023-02-07T11:44:31.150Z,15.60
2023-02-07T11:47:05.074Z,12.60
2023-02-07T11:49:35.182Z,14.10
2023-02-07T11:52:04.502Z,13.40
2023-02-07T11:54:33.861Z,13.10
2023-02-07T11:57:14.492Z,16.00
2023-02-07T12:00:17.025Z,16.30
2023-02-07T12:03:06.091Z,10.40
2023-02-07T12:05:42.149Z,17.10
2023-02-07T12:08:18.388Z,17.90
2023-02-07T12:10:51.881Z,21.70
2023-02-07T12:13:32.087Z,19.50
2023-02-07T12:16:07.392Z,12.70
2023-02-07T12:18:43.327Z,17.50
2023-02-07T12:21:36.721Z,17.00
2023-02-07T12:25:10.429Z,19.40
2023-02-07T12:27:44.600Z,21.20
2023-02-07T12:30:40.740Z,16.70
2023-02-07T12:33:24.395Z,16.10
2023-02-07T12:36:19.804Z,14.20
2023-02-07T12:39:08.068Z,12.60
2023-02-07T12:41:49.082Z,16.90
2023-02-07T12:44:36.157Z,16.90
2023-02-07T12:47:23.756Z,12.00
2023-02-07T12:50:14.148Z,9.90
2023-02-07T12:52:58.479Z,11.30
2023-02-07T12:55:45.834Z,16.50
2023-02-07T12:58:19.944Z,15.10
2023-02-07T13:01:43.755Z,21.60
2023-02-07T13:04:33.387Z,14.10
2023-02-07T13:07:40.383Z,15.20
2023-02-07T13:10:48.779Z,20.00
2023-02-07T13:13:41.070Z,13.30
2023-02-07T13:16:29.467Z,15.90
2023-02-07T13:19:11.869Z,18.00
2023-02-07T13:22:00.307Z,23.90
2023-02-07T13:24:32.540Z,10.90
2023-02-07T13:27:06.152Z,15.50
2023-02-07T13:29:37.217Z,12.70
2023-02-07T13:32:15.568Z,14.60
2023-02-07T13:35:05.058Z,10.90
2023-02-07T13:37:43.861Z,13.10
2023-02-07T13:40:41.615Z,16.70
2023-02-07T13:43:35.550Z,25.70
2023-02-07T13:46:20.024Z,19.20
2023-02-07T13:49:16.362Z,24.90
2023-02-07T13:52:00.119Z,21.70
2023-02-07T13:54:46.813Z,19.40
2023-02-07T13:57:52.531Z,16.80
2023-02-07T14:00:31.362Z,25.10
2023-02-07T14:03:06.627Z,16.30
2023-02-07T14:05:41.258Z,13.50
2023-02-07T14:08:15.736Z,18.10
2023-02-07T14:10:49.574Z,18.80
2023-02-07T14:13:27.116Z,16.00
2023-02-07T14:15:55.533Z,16.30
2023-02-07T14:18:42.626Z,20.50
2023-02-07T14:21:20.366Z,21.10
2023-02-07T14:23:57.488Z,19.40
2023-02-07T14:26:37.866Z,19.50
2023-02-07T14:29:25.108Z,22.00
2023-02-07T14:32:02.924Z,14.80
2023-02-07T14:34:53.048Z,12.60
2023-02-07T14:37:36.949Z,16.10
2023-02-07T14:40:43.699Z,11.60
2023-02-07T14:43:11.900Z,15.10
2023-02-07T14:45:58.535Z,20.80
2023-02-07T14:48:30.269Z,18.40
2023-02-07T14:50:58.806Z,20.90
2023-02-07T14:53:28.225Z,21.20
2023-02-07T14:56:02.649Z,14.70
2023-02-07T14:58:42.507Z,13.60
2023-02-07T15:01:20.245Z,16.60
2023-02-07T15:04:06.799Z,22.60
2023-02-07T15:06:41.957Z,15.30
2023-02-07T15:09:26.573Z,14.30
2023-02-07T15:12:15.785Z,10.40
2023-02-07T15:14:53.667Z,14.90
2023-02-07T15:17:25.755Z,17.10
2023-02-07T15:19:58.166Z,15.30
2023-02-07T15:22:29.300Z,20.30
2023-02-07T15:24:59.779Z,20.10
2023-02-07T15:27:30.138Z,15.70
2023-02-07T15:30:01.577Z,23.80
2023-02-07T15:32:34.385Z,21.70
2023-02-07T15:35:18.011Z,11.50
2023-02-07T15:37:47.608Z,13.30
2023-02-07T15:40:17.747Z,25.80
2023-02-07T15:42:56.363Z,21.40
2023-02-07T15:45:33.904Z,23.10
2023-02-07T15:48:09.871Z,25.40
2023-02-07T15:50:38.753Z,20.60
2023-02-07T15:53:08.832Z,24.30
2023-02-07T15:55:47.091Z,16.40
2023-02-07T15:58:29.132Z,16.70
2023-02-07T16:01:16.215Z,31.70
2023-02-07T16:03:47.656Z,25.00
2023-02-07T16:06:27.740Z,32.60
2023-02-07T16:09:01.856Z,27.60
2023-02-07T16:11:32.828Z,23.00
2023-02-07T16:14:25.650Z,22.80
2023-02-07T16:16:57.081Z,21.70
2023-02-07T16:19:29.554Z,20.10
2023-02-07T16:22:16.863Z,25.70
2023-02-07T16:24:52.700Z,29.20
2023-02-07T16:27:37.413Z,20.90
2023-02-07T16:30:15.021Z,20.50
2023-02-07T16:32:43.463Z,19.50
2023-02-07T16:35:28.017Z,13.60
2023-02-07T16:37:56.386Z,25.00
2023-02-07T16:40:26.751Z,14.60
2023-02-07T16:42:56.292Z,13.70
2023-02-07T16:45:38.360Z,22.10
2023-02-07T16:48:15.277Z,17.10
2023-02-07T16:50:54.184Z,18.70
2023-02-07T16:53:22.466Z,15.80
2023-02-07T16:55:53.858Z,29.20
2023-02-07T16:58:28.899Z,25.30
2023-02-07T17:00:57.187Z,13.60
2023-02-07T17:03:25.605Z,13.20
2023-02-07T17:05:53.819Z,17.00
2023-02-07T17:08:27.150Z,16.90
2023-02-07T17:11:01.827Z,28.90
2023-02-07T17:13:30.140Z,32.50
2023-02-07T17:15:58.475Z,12.70
2023-02-07T17:18:26.767Z,13.60
2023-02-07T17:20:55.900Z,31.40
2023-02-07T17:23:27.675Z,36.00
2023-02-07T17:25:56.139Z,34.10
2023-02-07T17:28:24.474Z,23.00
2023-02-07T17:30:54.733Z,30.00
2023-02-07T17:33:22.981Z,28.80
2023-02-07T17:35:51.424Z,13.70
2023-02-07T17:38:19.689Z,15.90
2023-02-07T17:40:47.852Z,18.70
2023-02-07T17:43:16.111Z,20.00
2023-02-07T17:45:44.246Z,28.50
2023-02-07T17:48:12.648Z,26.30
2023-02-07T17:50:41.574Z,26.90
2023-02-07T17:53:11.016Z,15.40
2023-02-07T17:55:39.305Z,10.90
2023-02-07T17:58:07.767Z,12.60
2023-02-07T18:00:39.893Z,22.40
2023-02-07T18:03:09.161Z,24.40
2023-02-07T18:05:39.966Z,31.20
2023-02-07T18:08:12.192Z,26.30
2023-02-07T18:10:41.138Z,24.20
2023-02-07T18:13:09.583Z,27.90
2023-02-07T18:15:37.717Z,13.30
2023-02-07T18:18:06.058Z,19.00
2023-02-07T18:20:34.783Z,23.20
2023-02-07T18:23:03.052Z,22.40
2023-02-07T18:25:31.502Z,15.50
2023-02-07T18:28:01.461Z,18.10
2023-02-07T18:30:30.195Z,10.70
2023-02-07T18:32:59.465Z,26.70
2023-02-07T18:35:27.794Z,27.10
2023-02-07T18:37:55.991Z,26.70
2023-02-07T18:40:24.232Z,24.90
2023-02-07T18:42:52.449Z,15.90
2023-02-07T18:45:20.657Z,12.50
2023-02-07T18:47:49.748Z,14.60
2023-02-07T18:50:19.968Z,30.50
2023-02-07T18:52:48.939Z,16.00
2023-02-07T18:55:17.173Z,8.50
2023-02-07T18:57:45.528Z,17.20
2023-02-07T19:00:14.399Z,17.00
2023-02-07T19:02:43.008Z,21.30
2023-02-07T19:05:11.326Z,26.20
2023-02-07T19:07:39.538Z,12.90
2023-02-07T19:10:09.609Z,17.80
2023-02-07T19:12:39.206Z,22.10
2023-02-07T19:15:07.744Z,12.40
2023-02-07T19:17:36.215Z,13.70
2023-02-07T19:20:04.688Z,5.00
2023-02-07T19:22:35.732Z,10.40
2023-02-07T19:25:05.702Z,16.10
2023-02-07T19:27:34.282Z,8.70
2023-02-07T19:30:02.710Z,27.30
2023-02-07T19:32:31.096Z,17.90
2023-02-07T19:34:59.359Z,21.40
2023-02-07T19:37:27.567Z,21.10
2023-02-07T19:39:56.450Z,20.30
2023-02-07T19:42:24.891Z,22.30
2023-02-07T19:44:53.209Z,27.20
2023-02-07T19:47:21.591Z,24.20
2023-02-07T19:49:52.121Z,31.00
2023-02-07T19:52:20.871Z,20.90
2023-02-07T19:54:50.203Z,22.40
2023-02-07T19:57:18.832Z,26.50
2023-02-07T19:59:48.581Z,19.40
2023-02-07T20:02:17.094Z,14.30
2023-02-07T20:04:45.475Z,14.50
2023-02-07T20:07:13.781Z,15.80
2023-02-07T20:09:42.023Z,17.30
2023-02-07T20:12:11.336Z,15.50
2023-02-07T20:14:39.525Z,17.20
2023-02-07T20:17:08.384Z,10.20
2023-02-07T20:19:38.745Z,15.50
2023-02-07T20:22:07.063Z,21.10
2023-02-07T20:24:35.340Z,22.20
2023-02-07T20:27:03.790Z,19.00
2023-02-07T20:29:32.831Z,24.50
2023-02-07T20:32:01.156Z,25.10
2023-02-07T20:34:29.507Z,13.50
2023-02-07T20:36:57.774Z,15.10
2023-02-07T20:39:26.822Z,20.40
2023-02-07T20:41:55.068Z,18.50
2023-02-07T20:44:26.665Z,9.90
2023-02-07T20:46:57.087Z,7.30
2023-02-07T20:49:31.504Z,11.30
2023-02-07T20:52:00.971Z,9.90
2023-02-07T20:54:30.745Z,18.00
2023-02-07T20:56:59.236Z,23.10
2023-02-07T20:59:30.611Z,25.50
2023-02-07T21:01:59.912Z,25.00
2023-02-07T21:04:29.837Z,20.30
2023-02-07T21:06:58.142Z,18.60
2023-02-07T21:09:26.588Z,10.40
2023-02-07T21:11:55.352Z,27.60
2023-02-07T21:14:30.340Z,13.70
2023-02-07T21:17:01.624Z,9.50
2023-02-07T21:19:30.345Z,7.10
2023-02-07T21:21:58.664Z,11.20
2023-02-07T21:24:27.606Z,8.40
2023-02-07T21:26:57.018Z,12.50
2023-02-07T21:29:26.339Z,11.50
2023-02-07T21:31:55.208Z,22.30
2023-02-07T21:34:25.671Z,27.10
2023-02-07T21:36:54.197Z,25.40
2023-02-07T21:39:24.468Z,24.60
2023-02-07T21:41:52.795Z,22.70
2023-02-07T21:44:22.386Z,28.00
2023-02-07T21:46:57.350Z,16.00
2023-02-07T21:49:25.592Z,25.40
2023-02-07T21:51:53.984Z,27.20
2023-02-07T21:54:22.442Z,25.30
2023-02-07T21:56:52.008Z,26.30
2023-02-07T21:59:22.602Z,25.60
2023-02-07T22:01:51.627Z,30.70
2023-02-07T22:04:20.450Z,12.30
2023-02-07T22:06:49.486Z,21.70
2023-02-07T22:09:19.933Z,26.60
2023-02-07T22:11:48.141Z,13.20
2023-02-07T22:14:17.502Z,32.70
2023-02-07T22:16:52.219Z,34.50
2023-02-07T22:19:20.970Z,18.70
2023-02-07T22:21:50.743Z,17.60
2023-02-07T22:24:23.559Z,15.10
2023-02-07T22:26:53.988Z,38.60
2023-02-07T22:29:22.125Z,21.00
2023-02-07T22:31:50.572Z,35.60
2023-02-07T22:34:19.912Z,33.60
2023-02-07T22:36:48.271Z,13.90
2023-02-07T22:39:18.316Z,40.50
2023-02-07T22:41:47.180Z,40.90
2023-02-07T22:44:15.759Z,42.40
2023-02-07T22:46:44.116Z,45.20
2023-02-07T22:49:12.498Z,66.70
2023-02-07T22:51:40.732Z,46.00
2023-02-07T22:54:14.584Z,44.60
2023-02-07T22:56:50.985Z,30.40
2023-02-07T22:59:19.211Z,13.90
2023-02-07T23:01:47.603Z,16.90
2023-02-07T23:04:18.012Z,21.80
2023-02-07T23:06:47.022Z,44.20
2023-02-07T23:09:16.318Z,42.80
2023-02-07T23:11:45.680Z,49.90
2023-02-07T23:14:14.171Z,38.50
2023-02-07T23:16:43.233Z,36.30
2023-02-07T23:19:15.713Z,34.10
2023-02-07T23:24:17.159Z,26.70
2023-02-07T23:26:45.427Z,24.40
2023-02-07T23:29:13.727Z,7.90
2023-02-07T23:31:42.093Z,16.40
2023-02-07T23:34:10.446Z,29.90
2023-02-07T23:36:39.881Z,31.10
2023-02-07T23:39:09.346Z,29.40
2023-02-07T23:41:38.280Z,19.70
2023-02-07T23:44:06.537Z,32.10
2023-02-07T23:46:35.544Z,33.90
2023-02-07T23:49:04.111Z,23.80
2023-02-07T23:51:33.218Z,28.20
2023-02-07T23:54:01.667Z,29.30
2023-02-07T23:56:30.109Z,24.20
2023-02-07T23:58:58.341Z,22.10
